createdAt,value
2022-10-09T00:00:13.990Z,98.92
2022-10-09T00:02:40.584Z,99.73
2022-10-09T00:05:07.506Z,99.58
2022-10-09T00:07:34.192Z,98.76
2022-10-09T00:10:01.046Z,99.67
2022-10-09T00:12:27.641Z,100.00
2022-10-09T00:14:54.182Z,100.00
2022-10-09T00:17:20.907Z,100.00
2022-10-09T00:19:47.527Z,100.00
2022-10-09T00:22:14.193Z,100.00
2022-10-09T00:24:42.415Z,100.00
2022-10-09T00:27:08.954Z,100.00
2022-10-09T00:29:35.567Z,100.00
2022-10-09T00:32:02.143Z,100.00
2022-10-09T00:34:28.669Z,100.00
2022-10-09T00:36:55.228Z,100.00
2022-10-09T00:39:21.800Z,100.00
2022-10-09T00:41:48.484Z,100.00
2022-10-09T00:44:47.581Z,100.00
2022-10-09T00:47:34.342Z,100.00
2022-10-09T00:50:11.685Z,100.00
2022-10-09T00:52:38.486Z,100.00
2022-10-09T00:55:07.064Z,100.00
2022-10-09T00:57:34.422Z,100.00
2022-10-09T01:00:05.981Z,100.00
2022-10-09T01:02:32.550Z,100.00
2022-10-09T01:04:59.755Z,100.00
2022-10-09T01:07:45.042Z,100.00
2022-10-09T01:10:37.841Z,100.00
2022-10-09T01:13:12.736Z,100.00
2022-10-09T01:15:51.714Z,100.00
2022-10-09T01:18:30.995Z,100.00
2022-10-09T01:21:09.344Z,100.00
2022-10-09T01:23:53.165Z,100.00
2022-10-09T01:26:29.223Z,100.00
2022-10-09T01:29:00.374Z,100.00
2022-10-09T01:31:30.747Z,100.00
2022-10-09T01:33:59.770Z,100.00
2022-10-09T01:36:29.411Z,100.00
2022-10-09T01:38:59.940Z,100.00
2022-10-09T01:41:26.574Z,100.00
2022-10-09T01:43:53.249Z,100.00
2022-10-09T01:46:22.382Z,100.00
2022-10-09T01:49:31.191Z,100.00
2022-10-09T01:52:12.817Z,100.00
2022-10-09T01:54:55.208Z,100.00
2022-10-09T01:57:54.869Z,100.00
2022-10-09T02:00:22.073Z,100.00
2022-10-09T02:02:51.213Z,100.00
2022-10-09T02:05:22.536Z,100.00
2022-10-09T02:07:49.357Z,100.00
2022-10-09T02:10:18.046Z,100.00
2022-10-09T02:12:51.291Z,100.00
2022-10-09T02:15:18.075Z,100.00
2022-10-09T02:17:49.208Z,100.00
2022-10-09T02:20:31.340Z,100.00
2022-10-09T02:23:01.721Z,100.00
2022-10-09T02:25:29.347Z,100.00
2022-10-09T02:27:56.675Z,100.00
2022-10-09T02:30:26.855Z,100.00
2022-10-09T02:32:54.517Z,100.00
2022-10-09T02:35:21.746Z,100.00
2022-10-09T02:37:49.754Z,100.00
2022-10-09T02:40:16.578Z,100.00
2022-10-09T02:42:43.336Z,100.00
2022-10-09T02:45:10.256Z,100.00
2022-10-09T02:47:37.021Z,100.00
2022-10-09T02:50:03.870Z,100.00
2022-10-09T02:52:30.455Z,100.00
2022-10-09T02:54:57.012Z,100.00
2022-10-09T02:57:23.532Z,100.00
2022-10-09T02:59:50.093Z,100.00
2022-10-09T03:02:16.825Z,100.00
2022-10-09T03:04:43.509Z,100.00
2022-10-09T03:07:10.172Z,100.00
2022-10-09T03:09:36.808Z,100.00
2022-10-09T03:12:03.513Z,100.00
2022-10-09T03:14:30.105Z,100.00
2022-10-09T03:16:57.584Z,100.00
2022-10-09T03:19:24.280Z,100.00
2022-10-09T03:21:50.882Z,100.00
2022-10-09T03:24:17.575Z,100.00
2022-10-09T03:26:44.230Z,100.00
2022-10-09T03:29:10.848Z,100.00
2022-10-09T03:31:51.789Z,100.00
2022-10-09T03:34:19.299Z,100.00
2022-10-09T03:36:45.835Z,100.00
2022-10-09T03:39:12.636Z,100.00
2022-10-09T03:41:39.181Z,100.00
2022-10-09T03:44:05.763Z,100.00
2022-10-09T03:46:32.529Z,100.00
2022-10-09T03:48:59.401Z,100.00
2022-10-09T03:51:26.616Z,100.00
2022-10-09T03:53:53.189Z,100.00
2022-10-09T03:56:19.737Z,100.00
2022-10-09T03:58:46.298Z,100.00
2022-10-09T04:01:12.971Z,100.00
2022-10-09T04:03:39.647Z,100.00
2022-10-09T04:06:07.925Z,100.00
2022-10-09T04:08:35.772Z,100.00
2022-10-09T04:11:03.589Z,100.00
2022-10-09T04:13:30.244Z,100.00
2022-10-09T04:15:57.416Z,100.00
2022-10-09T04:18:24.896Z,100.00
2022-10-09T04:20:53.549Z,100.00
2022-10-09T04:23:21.459Z,100.00
2022-10-09T04:25:48.027Z,100.00
2022-10-09T04:28:14.707Z,100.00
2022-10-09T04:30:41.439Z,100.00
2022-10-09T04:33:12.815Z,100.00
2022-10-09T04:35:46.720Z,100.00
2022-10-09T04:38:13.274Z,100.00
2022-10-09T04:40:39.782Z,100.00
2022-10-09T04:43:06.423Z,100.00
2022-10-09T04:45:33.228Z,100.00
2022-10-09T04:48:00.119Z,100.00
2022-10-09T04:50:26.681Z,100.00
2022-10-09T04:52:53.366Z,100.00
2022-10-09T04:55:20.012Z,100.00
2022-10-09T04:57:46.555Z,100.00
2022-10-09T05:00:13.875Z,100.00
2022-10-09T05:02:40.637Z,100.00
2022-10-09T05:05:07.642Z,100.00
2022-10-09T05:07:34.393Z,100.00
2022-10-09T05:10:00.967Z,100.00
2022-10-09T05:12:27.499Z,100.00
2022-10-09T05:14:54.011Z,100.00
2022-10-09T05:17:23.171Z,100.00
2022-10-09T05:19:50.232Z,100.00
2022-10-09T05:22:16.818Z,100.00
2022-10-09T05:24:43.420Z,100.00
2022-10-09T05:27:10.121Z,100.00
2022-10-09T05:29:36.796Z,100.00
2022-10-09T05:32:03.621Z,100.00
2022-10-09T05:34:30.371Z,100.00
2022-10-09T05:36:57.028Z,100.00
2022-10-09T05:39:23.652Z,100.00
2022-10-09T05:41:50.198Z,100.00
2022-10-09T05:44:16.857Z,100.00
2022-10-09T05:46:43.448Z,100.00
2022-10-09T05:49:10.404Z,100.00
2022-10-09T05:51:40.137Z,100.00
2022-10-09T05:54:06.704Z,100.00
2022-10-09T05:56:35.973Z,100.00
2022-10-09T05:59:08.510Z,100.00
2022-10-09T06:01:37.829Z,100.00
2022-10-09T06:04:06.550Z,100.00
2022-10-09T06:06:36.702Z,100.00
2022-10-09T06:09:03.962Z,100.00
2022-10-09T06:11:32.992Z,100.00
2022-10-09T06:14:02.162Z,100.00
2022-10-09T06:16:31.682Z,100.00
2022-10-09T06:18:59.271Z,100.00
2022-10-09T06:21:26.692Z,100.00
2022-10-09T06:23:56.262Z,100.00
2022-10-09T06:26:24.062Z,100.00
2022-10-09T06:28:51.203Z,100.00
2022-10-09T06:31:20.343Z,100.00
2022-10-09T06:33:48.694Z,100.00
2022-10-09T06:36:23.607Z,100.00
2022-10-09T06:38:50.740Z,100.00
2022-10-09T06:41:20.387Z,100.00
2022-10-09T06:43:52.919Z,100.00
2022-10-09T06:46:21.298Z,100.00
2022-10-09T06:48:47.931Z,100.00
2022-10-09T06:51:17.685Z,100.00
2022-10-09T06:53:50.219Z,100.00
2022-10-09T06:56:18.159Z,100.00
2022-10-09T06:58:45.323Z,100.00
2022-10-09T07:01:24.703Z,100.00
2022-10-09T07:03:57.323Z,100.00
2022-10-09T07:06:26.734Z,100.00
2022-10-09T07:08:57.694Z,100.00
2022-10-09T07:11:33.138Z,97.71
2022-10-09T07:14:02.140Z,96.17
2022-10-09T07:16:34.082Z,93.77
2022-10-09T07:19:03.663Z,92.82
2022-10-09T07:21:31.409Z,91.99
2022-10-09T07:24:00.882Z,90.70
2022-10-09T07:26:29.447Z,89.69
2022-10-09T07:28:56.284Z,89.04
2022-10-09T07:31:23.277Z,88.77
2022-10-09T07:33:51.804Z,86.09
2022-10-09T07:36:19.457Z,84.01
2022-10-09T07:38:51.034Z,83.97
2022-10-09T07:41:18.172Z,83.18
2022-10-09T07:43:45.077Z,83.04
2022-10-09T07:46:16.366Z,83.67
2022-10-09T07:48:43.320Z,83.86
2022-10-09T07:51:13.399Z,83.55
2022-10-09T07:53:40.001Z,83.46
2022-10-09T07:56:07.726Z,83.41
2022-10-09T07:58:34.332Z,83.12
2022-10-09T08:01:08.000Z,84.27
2022-10-09T08:03:35.213Z,82.64
2022-10-09T08:06:02.139Z,81.12
2022-10-09T08:08:28.848Z,79.48
2022-10-09T08:10:55.463Z,76.90
2022-10-09T08:13:22.366Z,75.28
2022-10-09T08:15:48.986Z,73.52
2022-10-09T08:18:15.832Z,71.97
2022-10-09T08:20:42.461Z,73.54
2022-10-09T08:23:09.521Z,76.16
2022-10-09T08:25:36.973Z,77.42
2022-10-09T08:28:04.829Z,77.60
2022-10-09T08:30:31.578Z,79.06
2022-10-09T08:32:58.122Z,79.90
2022-10-09T08:35:24.774Z,81.08
2022-10-09T08:37:51.754Z,80.29
2022-10-09T08:40:33.986Z,81.16
2022-10-09T08:43:04.727Z,81.52
2022-10-09T08:45:35.183Z,81.85
2022-10-09T08:48:12.348Z,81.89
2022-10-09T08:50:43.304Z,83.19
2022-10-09T08:53:38.361Z,81.56
2022-10-09T08:56:09.330Z,82.31
2022-10-09T08:58:39.193Z,80.45
2022-10-09T09:01:24.907Z,80.58
2022-10-09T09:04:22.976Z,80.64
2022-10-09T09:07:26.633Z,79.86
2022-10-09T09:10:11.956Z,78.80
2022-10-09T09:12:50.846Z,78.31
2022-10-09T09:15:26.340Z,77.78
2022-10-09T09:18:17.148Z,77.38
2022-10-09T09:20:53.814Z,76.99
2022-10-09T09:23:31.239Z,76.60
2022-10-09T09:25:59.685Z,75.15
2022-10-09T09:28:34.279Z,74.42
2022-10-09T09:31:07.179Z,74.48
2022-10-09T09:34:08.855Z,73.03
2022-10-09T09:36:47.424Z,71.24
2022-10-09T09:42:07.206Z,70.58
2022-10-09T09:44:36.357Z,69.79
2022-10-09T09:47:03.209Z,69.49
2022-10-09T09:49:30.287Z,69.09
2022-10-09T09:52:00.673Z,69.54
2022-10-09T09:54:29.948Z,68.17
2022-10-09T09:57:18.281Z,67.82
2022-10-09T09:59:45.454Z,66.78
2022-10-09T10:02:17.345Z,65.94
2022-10-09T10:04:52.766Z,65.08
2022-10-09T10:07:39.919Z,64.87
2022-10-09T10:10:25.732Z,64.32
2022-10-09T10:12:52.772Z,64.21
2022-10-09T10:15:23.748Z,62.72
2022-10-09T10:18:07.331Z,62.22
2022-10-09T10:20:44.678Z,61.34
2022-10-09T10:23:34.827Z,60.80
2022-10-09T10:26:23.010Z,61.07
2022-10-09T10:28:59.524Z,59.79
2022-10-09T10:31:43.924Z,59.67
2022-10-09T10:34:24.829Z,60.40
2022-10-09T10:37:02.585Z,59.27
2022-10-09T10:39:54.265Z,59.19
2022-10-09T10:42:44.036Z,58.56
2022-10-09T10:45:15.194Z,58.30
2022-10-09T10:47:48.530Z,55.86
2022-10-09T10:50:19.483Z,56.04
2022-10-09T10:52:57.893Z,54.99
2022-10-09T10:55:39.787Z,54.79
2022-10-09T11:01:12.947Z,54.21
2022-10-09T11:04:10.072Z,54.07
2022-10-09T11:06:52.554Z,54.43
2022-10-09T11:09:32.907Z,53.29
2022-10-09T11:12:43.214Z,53.57
2022-10-09T11:15:26.610Z,53.85
2022-10-09T11:17:56.312Z,52.81
2022-10-09T11:20:50.008Z,52.14
2022-10-09T11:23:53.711Z,51.98
2022-10-09T11:26:46.248Z,52.41
2022-10-09T11:29:20.635Z,52.03
2022-10-09T11:32:02.043Z,52.06
2022-10-09T11:34:40.150Z,51.53
2022-10-09T11:37:18.006Z,49.22
2022-10-09T11:39:46.024Z,48.89
2022-10-09T11:42:16.919Z,48.75
2022-10-09T11:44:53.464Z,49.11
2022-10-09T11:47:47.095Z,49.94
2022-10-09T11:50:27.090Z,49.88
2022-10-09T11:53:05.884Z,49.37
2022-10-09T11:55:35.078Z,48.58
2022-10-09T11:58:24.614Z,48.89
2022-10-09T12:00:55.475Z,49.38
2022-10-09T12:03:33.228Z,49.52
2022-10-09T12:06:16.193Z,48.85
2022-10-09T12:09:07.547Z,47.97
2022-10-09T12:11:35.051Z,48.53
2022-10-09T12:14:06.617Z,49.50
2022-10-09T12:16:43.813Z,48.31
2022-10-09T12:19:36.374Z,47.07
2022-10-09T12:22:02.815Z,47.82
2022-10-09T12:24:42.844Z,47.78
2022-10-09T12:27:35.811Z,48.65
2022-10-09T12:30:11.730Z,48.78
2022-10-09T12:32:41.888Z,48.74
2022-10-09T12:35:17.920Z,49.13
2022-10-09T12:37:44.462Z,49.60
2022-10-09T12:40:17.356Z,49.55
2022-10-09T12:42:45.841Z,49.26
2022-10-09T12:45:18.497Z,49.99
2022-10-09T12:47:45.910Z,49.17
2022-10-09T12:50:26.929Z,48.74
2022-10-09T12:52:57.567Z,49.31
2022-10-09T12:55:30.762Z,47.34
2022-10-09T12:58:03.815Z,47.32
2022-10-09T13:00:34.024Z,48.02
2022-10-09T13:03:01.456Z,47.12
2022-10-09T13:05:40.044Z,46.42
2022-10-09T13:08:20.948Z,42.87
2022-10-09T13:10:47.557Z,41.77
2022-10-09T13:13:20.280Z,40.29
2022-10-09T13:15:57.476Z,39.63
2022-10-09T13:18:24.261Z,39.57
2022-10-09T13:21:24.882Z,39.92
2022-10-09T13:23:51.281Z,40.32
2022-10-09T13:26:30.362Z,40.09
2022-10-09T13:28:59.352Z,40.24
2022-10-09T13:31:26.607Z,39.84
2022-10-09T13:33:53.104Z,39.84
2022-10-09T13:36:20.527Z,39.98
2022-10-09T13:38:47.922Z,40.60
2022-10-09T13:41:19.910Z,39.69
2022-10-09T13:43:46.773Z,39.40
2022-10-09T13:46:13.345Z,39.04
2022-10-09T13:48:40.512Z,39.00
2022-10-09T13:51:07.240Z,39.23
2022-10-09T13:53:34.266Z,39.00
2022-10-09T13:56:01.449Z,39.61
2022-10-09T13:58:28.651Z,38.61
2022-10-09T14:00:55.837Z,39.70
2022-10-09T14:03:22.346Z,40.13
2022-10-09T14:05:49.044Z,40.20
2022-10-09T14:08:15.833Z,39.91
2022-10-09T14:10:43.559Z,40.74
2022-10-09T14:13:11.174Z,40.79
2022-10-09T14:15:41.818Z,41.10
2022-10-09T14:18:09.083Z,40.87
2022-10-09T14:20:36.053Z,41.09
2022-10-09T14:23:02.713Z,41.09
2022-10-09T14:25:29.308Z,40.75
2022-10-09T14:27:55.918Z,41.19
2022-10-09T14:30:22.660Z,40.84
2022-10-09T14:32:49.502Z,40.80
2022-10-09T14:35:20.689Z,41.03
2022-10-09T14:37:48.095Z,41.40
2022-10-09T14:40:14.763Z,41.70
2022-10-09T14:42:41.572Z,41.79
2022-10-09T14:45:09.154Z,41.58
2022-10-09T14:47:36.009Z,41.91
2022-10-09T14:50:02.725Z,41.11
2022-10-09T14:52:29.356Z,41.76
2022-10-09T14:54:55.913Z,41.78
2022-10-09T14:57:22.459Z,41.78
2022-10-09T14:59:49.026Z,42.10
2022-10-09T15:02:16.436Z,42.38
2022-10-09T15:04:43.289Z,42.58
2022-10-09T15:07:09.877Z,42.93
2022-10-09T15:09:36.529Z,41.92
2022-10-09T15:12:03.197Z,41.88
2022-10-09T15:14:29.843Z,42.28
2022-10-09T15:16:56.368Z,42.43
2022-10-09T15:19:22.931Z,42.83
2022-10-09T15:21:49.564Z,42.78
2022-10-09T15:24:16.299Z,42.63
2022-10-09T15:26:43.019Z,42.73
2022-10-09T15:29:10.751Z,42.29
2022-10-09T15:31:39.880Z,42.37
2022-10-09T15:34:08.534Z,42.63
2022-10-09T15:36:38.485Z,42.52
2022-10-09T15:39:07.391Z,42.69
2022-10-09T15:41:40.112Z,43.11
2022-10-09T15:44:18.467Z,42.63
2022-10-09T15:46:46.673Z,43.01
2022-10-09T15:49:14.347Z,42.94
2022-10-09T15:51:41.268Z,43.35
2022-10-09T15:54:07.896Z,43.77
2022-10-09T15:56:38.928Z,43.67
2022-10-09T15:59:13.784Z,43.92
2022-10-09T16:01:40.387Z,43.87
2022-10-09T16:04:07.118Z,44.41
2022-10-09T16:06:33.868Z,43.87
2022-10-09T16:09:01.211Z,44.21
2022-10-09T16:11:28.075Z,44.74
2022-10-09T16:13:55.729Z,45.00
2022-10-09T16:16:26.048Z,45.63
2022-10-09T16:18:52.581Z,45.98
2022-10-09T16:21:22.157Z,45.94
2022-10-09T16:23:49.066Z,46.08
2022-10-09T16:26:18.715Z,46.30
2022-10-09T16:28:46.610Z,46.61
2022-10-09T16:31:26.107Z,46.97
2022-10-09T16:33:53.324Z,47.45
2022-10-09T16:36:20.045Z,47.64
2022-10-09T16:38:46.761Z,49.18
2022-10-09T16:41:17.914Z,48.71
2022-10-09T16:43:47.156Z,48.89
2022-10-09T16:46:22.846Z,49.42
2022-10-09T16:48:51.176Z,49.38
2022-10-09T16:51:21.094Z,49.86
2022-10-09T16:53:56.001Z,50.14
2022-10-09T16:56:25.600Z,50.25
2022-10-09T16:58:57.338Z,51.33
2022-10-09T17:01:25.226Z,51.16
2022-10-09T17:03:54.242Z,51.46
2022-10-09T17:06:23.577Z,51.82
2022-10-09T17:08:52.144Z,52.52
2022-10-09T17:11:18.748Z,53.28
2022-10-09T17:13:46.386Z,54.27
2022-10-09T17:16:18.448Z,54.83
2022-10-09T17:18:46.315Z,55.64
2022-10-09T17:21:13.430Z,56.78
2022-10-09T17:23:40.197Z,57.39
2022-10-09T17:26:15.055Z,57.80
2022-10-09T17:28:43.491Z,59.04
2022-10-09T17:31:17.246Z,60.13
2022-10-09T17:33:46.338Z,60.69
2022-10-09T17:36:15.481Z,61.11
2022-10-09T17:38:42.473Z,61.58
2022-10-09T17:41:12.058Z,61.88
2022-10-09T17:43:39.541Z,62.54
2022-10-09T17:46:07.007Z,63.10
2022-10-09T17:48:34.771Z,63.70
2022-10-09T17:51:03.789Z,64.20
2022-10-09T17:53:31.362Z,64.59
2022-10-09T17:56:03.481Z,65.17
2022-10-09T17:58:30.296Z,65.67
2022-10-09T18:00:56.948Z,66.49
2022-10-09T18:03:23.857Z,66.63
2022-10-09T18:05:51.414Z,66.99
2022-10-09T18:08:19.088Z,67.54
2022-10-09T18:10:45.771Z,67.91
2022-10-09T18:13:12.325Z,68.46
2022-10-09T18:15:41.371Z,69.12
2022-10-09T18:18:10.171Z,69.75
2022-10-09T18:20:42.999Z,70.11
2022-10-09T18:23:11.131Z,70.45
2022-10-09T18:25:44.309Z,71.07
2022-10-09T18:28:12.958Z,71.89
2022-10-09T18:30:48.616Z,73.12
2022-10-09T18:33:21.506Z,73.42
2022-10-09T18:35:54.858Z,73.65
2022-10-09T18:38:28.115Z,74.60
2022-10-09T18:41:01.432Z,74.86
2022-10-09T18:43:29.900Z,74.46
2022-10-09T18:46:05.397Z,74.80
2022-10-09T18:48:39.810Z,74.92
2022-10-09T18:51:13.365Z,75.33
2022-10-09T18:53:42.966Z,75.75
2022-10-09T18:56:12.585Z,76.32
2022-10-09T18:58:42.442Z,77.61
2022-10-09T19:01:12.832Z,77.74
2022-10-09T19:03:47.519Z,77.59
2022-10-09T19:06:20.402Z,77.73
2022-10-09T19:08:52.553Z,77.88
2022-10-09T19:11:21.224Z,77.52
2022-10-09T19:13:57.493Z,78.23
2022-10-09T19:16:45.666Z,78.00
2022-10-09T19:19:27.834Z,78.73
2022-10-09T19:21:57.802Z,79.04
2022-10-09T19:24:31.035Z,79.03
2022-10-09T19:27:13.401Z,79.15
2022-10-09T19:29:44.589Z,79.02
2022-10-09T19:32:28.845Z,79.44
2022-10-09T19:34:59.947Z,79.42
2022-10-09T19:40:33.259Z,78.50
2022-10-09T19:43:07.454Z,78.08
2022-10-09T19:45:42.406Z,77.18
2022-10-09T19:48:13.855Z,76.65
2022-10-09T19:50:43.769Z,76.30
2022-10-09T19:53:20.370Z,76.63
2022-10-09T19:55:47.508Z,76.70
2022-10-09T19:58:24.371Z,77.48
2022-10-09T20:00:51.726Z,77.82
2022-10-09T20:03:19.265Z,78.79
2022-10-09T20:05:48.579Z,79.53
2022-10-09T20:08:21.737Z,80.54
2022-10-09T20:10:49.903Z,81.06
2022-10-09T20:13:25.804Z,82.11
2022-10-09T20:15:54.285Z,83.00
2022-10-09T20:18:25.281Z,82.75
2022-10-09T20:23:37.783Z,84.06
2022-10-09T20:26:12.283Z,84.12
2022-10-09T20:28:39.932Z,84.25
2022-10-09T20:31:14.700Z,84.71
2022-10-09T20:33:42.594Z,85.08
2022-10-09T20:36:19.047Z,85.22
2022-10-09T20:38:45.669Z,85.19
2022-10-09T20:41:12.202Z,84.79
2022-10-09T20:43:40.190Z,84.04
2022-10-09T20:46:12.442Z,82.97
2022-10-09T20:48:39.564Z,81.93
2022-10-09T20:51:06.392Z,80.97
2022-10-09T20:53:33.289Z,80.24
2022-10-09T20:56:01.860Z,80.06
2022-10-09T20:58:29.144Z,78.08
2022-10-09T21:00:55.822Z,77.45
2022-10-09T21:03:22.428Z,77.57
2022-10-09T21:05:49.328Z,78.08
2022-10-09T21:08:15.895Z,78.87
2022-10-09T21:10:47.404Z,79.62
2022-10-09T21:13:14.259Z,80.40
2022-10-09T21:15:45.099Z,80.98
2022-10-09T21:18:12.462Z,81.44
2022-10-09T21:20:40.775Z,82.10
2022-10-09T21:23:08.416Z,82.42
2022-10-09T21:25:35.043Z,82.24
2022-10-09T21:28:02.588Z,83.31
2022-10-09T21:30:29.604Z,83.31
2022-10-09T21:32:56.559Z,83.90
2022-10-09T21:35:23.805Z,85.35
2022-10-09T21:37:50.762Z,86.34
2022-10-09T21:40:17.959Z,86.96
2022-10-09T21:42:44.708Z,87.85
2022-10-09T21:45:12.914Z,88.67
2022-10-09T21:47:39.544Z,89.24
2022-10-09T21:50:07.026Z,90.34
2022-10-09T21:52:33.690Z,90.31
2022-10-09T21:55:00.250Z,90.98
2022-10-09T21:57:26.789Z,91.38
2022-10-09T21:59:53.393Z,91.05
2022-10-09T22:02:20.111Z,91.13
2022-10-09T22:04:46.715Z,90.91
2022-10-09T22:07:13.338Z,91.12
2022-10-09T22:09:39.868Z,91.29
2022-10-09T22:12:06.557Z,92.02
2022-10-09T22:14:33.326Z,92.18
2022-10-09T22:16:59.802Z,92.00
2022-10-09T22:19:26.407Z,92.25
2022-10-09T22:21:52.973Z,92.12
2022-10-09T22:24:19.503Z,91.40
2022-10-09T22:26:46.087Z,91.80
2022-10-09T22:29:12.627Z,91.94
2022-10-09T22:31:39.176Z,91.73
2022-10-09T22:34:05.758Z,91.79
2022-10-09T22:36:33.659Z,91.22
2022-10-09T22:39:03.972Z,91.32
2022-10-09T22:41:31.239Z,92.09
2022-10-09T22:44:00.685Z,91.75
2022-10-09T22:46:30.420Z,91.72
2022-10-09T22:48:57.933Z,92.54
2022-10-09T22:51:27.241Z,92.68
2022-10-09T22:53:55.382Z,92.12
2022-10-09T22:56:24.132Z,92.22
2022-10-09T22:58:53.025Z,92.67
2022-10-09T23:01:30.413Z,92.40
2022-10-09T23:04:02.453Z,92.47
2022-10-09T23:06:29.532Z,92.97
2022-10-09T23:08:56.640Z,92.87
2022-10-09T23:11:24.296Z,92.87
2022-10-09T23:13:56.030Z,92.97
2022-10-09T23:16:23.216Z,92.46
2022-10-09T23:18:50.647Z,92.95
2022-10-09T23:21:20.251Z,92.67
2022-10-09T23:23:47.916Z,92.67
2022-10-09T23:26:26.880Z,92.40
2022-10-09T23:29:01.951Z,92.32
2022-10-09T23:31:29.850Z,91.99
2022-10-09T23:33:56.818Z,92.23
2022-10-09T23:36:25.892Z,92.38
2022-10-09T23:38:52.796Z,93.01
2022-10-09T23:41:22.234Z,92.45
2022-10-09T23:43:49.566Z,92.27
2022-10-09T23:46:19.070Z,93.12
2022-10-09T23:48:46.697Z,93.74
2022-10-09T23:51:14.237Z,94.43
2022-10-09T23:53:41.743Z,94.80
2022-10-09T23:56:29.235Z,95.36
2022-10-09T23:58:57.177Z,96.27
